createdAt,value
2017-08-12T00:00:16.069Z,82.32
2017-08-12T00:02:49.080Z,82.25
2017-08-12T00:05:20.157Z,82.09
2017-08-12T00:07:51.653Z,81.91
2017-08-12T00:10:23.023Z,81.71
2017-08-12T00:12:54.611Z,81.66
2017-08-12T00:15:25.783Z,81.73
2017-08-12T00:17:56.886Z,82.21
2017-08-12T00:20:28.520Z,82.28
2017-08-12T00:22:59.539Z,82.47
2017-08-12T00:25:30.594Z,82.29
2017-08-12T00:30:38.484Z,82.24
2017-08-12T00:33:09.910Z,82.34
2017-08-12T00:35:42.282Z,82.34
2017-08-12T00:38:14.141Z,82.42
2017-08-12T00:40:46.615Z,82.60
2017-08-12T00:43:17.699Z,82.33
2017-08-12T00:45:49.507Z,82.24
2017-08-12T00:48:20.848Z,82.28
2017-08-12T00:50:52.189Z,82.22
2017-08-12T00:53:23.614Z,82.12
2017-08-12T00:55:54.755Z,81.93
2017-08-12T00:58:25.867Z,82.17
2017-08-12T01:00:59.175Z,82.75
2017-08-12T01:03:30.218Z,83.15
2017-08-12T01:06:04.413Z,83.09
2017-08-12T01:08:35.507Z,82.97
2017-08-12T01:11:06.926Z,82.92
2017-08-12T01:13:38.050Z,82.80
2017-08-12T01:16:10.258Z,82.72
2017-08-12T01:18:41.970Z,82.92
2017-08-12T01:21:13.107Z,82.88
2017-08-12T01:23:45.392Z,83.00
2017-08-12T01:26:16.957Z,82.83
2017-08-12T01:28:48.053Z,82.77
2017-08-12T01:31:19.233Z,82.79
2017-08-12T01:33:50.800Z,82.81
2017-08-12T01:36:21.927Z,82.64
2017-08-12T01:38:53.237Z,82.50
2017-08-12T01:41:24.620Z,82.71
2017-08-12T01:43:55.681Z,82.68
2017-08-12T01:46:27.145Z,82.75
2017-08-12T01:48:58.235Z,83.63
2017-08-12T01:51:29.327Z,83.68
2017-08-12T01:54:00.759Z,83.64
2017-08-12T01:59:01.376Z,83.01
2017-08-12T02:01:32.632Z,83.05
2017-08-12T02:04:04.770Z,83.03
2017-08-12T02:06:35.834Z,83.51
2017-08-12T02:09:07.242Z,83.63
2017-08-12T02:11:38.432Z,83.94
2017-08-12T02:14:09.462Z,84.18
2017-08-12T02:16:41.947Z,84.02
2017-08-12T02:19:13.066Z,83.87
2017-08-12T02:21:45.103Z,83.90
2017-08-12T02:24:16.572Z,83.92
2017-08-12T02:26:47.678Z,83.94
2017-08-12T02:29:19.822Z,84.01
2017-08-12T02:31:50.937Z,84.29
2017-08-12T02:34:22.072Z,84.13
2017-08-12T02:36:53.563Z,84.16
2017-08-12T02:39:24.684Z,84.15
2017-08-12T02:41:55.767Z,84.77
2017-08-12T02:44:27.263Z,84.95
2017-08-12T02:46:58.292Z,84.95
2017-08-12T02:49:29.624Z,84.93
2017-08-12T02:52:00.689Z,85.39
2017-08-12T02:54:31.772Z,85.27
2017-08-12T02:57:03.072Z,85.82
2017-08-12T02:59:34.487Z,85.56
2017-08-12T03:02:06.937Z,85.45
2017-08-12T03:04:37.979Z,85.37
2017-08-12T03:07:09.023Z,85.43
2017-08-12T03:09:40.688Z,85.38
2017-08-12T03:12:11.742Z,85.39
2017-08-12T03:14:44.162Z,85.25
2017-08-12T03:17:15.200Z,85.29
2017-08-12T03:19:47.424Z,85.36
2017-08-12T03:22:18.832Z,85.28
2017-08-12T03:24:50.880Z,85.28
2017-08-12T03:27:21.947Z,85.34
2017-08-12T03:29:54.448Z,85.44
2017-08-12T03:32:25.532Z,85.43
2017-08-12T03:34:56.668Z,85.37
2017-08-12T03:37:28.131Z,85.19
2017-08-12T03:39:59.223Z,85.01
2017-08-12T03:42:30.277Z,85.22
2017-08-12T03:45:02.308Z,85.37
2017-08-12T03:47:33.335Z,85.36
2017-08-12T03:50:05.510Z,85.47
2017-08-12T03:52:36.573Z,85.41
2017-08-12T03:55:07.641Z,85.27
2017-08-12T03:57:38.688Z,85.46
2017-08-12T04:00:10.090Z,85.72
2017-08-12T04:02:42.029Z,85.99
2017-08-12T04:05:13.127Z,85.88
2017-08-12T04:07:45.099Z,85.85
2017-08-12T04:10:16.695Z,85.64
2017-08-12T04:12:48.105Z,85.60
2017-08-12T04:15:19.459Z,85.58
2017-08-12T04:17:50.528Z,85.61
2017-08-12T04:20:21.596Z,85.40
2017-08-12T04:22:52.905Z,85.26
2017-08-12T04:25:24.121Z,85.13
2017-08-12T04:27:55.170Z,85.29
2017-08-12T04:30:26.888Z,85.30
2017-08-12T04:32:57.918Z,85.19
2017-08-12T04:35:29.235Z,85.03
2017-08-12T04:38:00.283Z,85.11
2017-08-12T04:40:31.321Z,85.19
2017-08-12T04:43:02.711Z,85.15
2017-08-12T04:45:33.804Z,85.00
2017-08-12T04:48:05.971Z,84.85
2017-08-12T04:50:37.063Z,84.82
2017-08-12T04:53:08.099Z,84.86
2017-08-12T04:55:39.795Z,85.01
2017-08-12T04:58:10.840Z,85.00
2017-08-12T05:00:43.812Z,85.03
2017-08-12T05:03:14.998Z,85.10
2017-08-12T05:05:46.212Z,85.00
2017-08-12T05:08:17.684Z,85.14
2017-08-12T05:10:48.741Z,85.17
2017-08-12T05:13:19.768Z,85.01
2017-08-12T05:15:51.175Z,85.03
2017-08-12T05:18:22.762Z,84.89
2017-08-12T05:20:54.105Z,84.66
2017-08-12T05:23:25.212Z,84.61
2017-08-12T05:25:56.431Z,84.36
2017-08-12T05:28:27.579Z,84.55
2017-08-12T05:30:58.939Z,84.36
2017-08-12T05:33:30.504Z,84.27
2017-08-12T05:36:03.513Z,83.95
2017-08-12T05:38:34.564Z,83.87
2017-08-12T05:41:06.107Z,83.51
2017-08-12T05:43:37.182Z,83.84
2017-08-12T05:46:08.616Z,83.77
2017-08-12T05:48:40.380Z,83.51
2017-08-12T05:51:11.549Z,83.54
2017-08-12T05:53:44.023Z,83.57
2017-08-12T05:56:15.536Z,83.63
2017-08-12T05:58:47.484Z,83.59
2017-08-12T06:01:19.226Z,83.05
2017-08-12T06:03:50.307Z,82.66
2017-08-12T06:06:21.356Z,82.30
2017-08-12T06:08:52.864Z,82.02
2017-08-12T06:11:24.006Z,81.30
2017-08-12T06:13:55.085Z,80.63
2017-08-12T06:16:26.460Z,79.92
2017-08-12T06:18:57.515Z,79.20
2017-08-12T06:21:28.568Z,78.89
2017-08-12T06:24:00.042Z,79.33
2017-08-12T06:26:31.264Z,79.07
2017-08-12T06:29:02.628Z,78.97
2017-08-12T06:31:34.442Z,78.63
2017-08-12T06:34:05.562Z,78.51
2017-08-12T06:38:59.311Z,77.63
2017-08-12T06:41:30.638Z,77.84
2017-08-12T06:44:03.552Z,77.76
2017-08-12T06:46:34.730Z,77.53
2017-08-12T06:49:05.874Z,77.27
2017-08-12T06:51:37.401Z,77.20
2017-08-12T06:54:08.666Z,76.83
2017-08-12T06:56:39.936Z,76.93
2017-08-12T06:59:10.977Z,76.92
2017-08-12T07:01:42.266Z,76.65
2017-08-12T07:04:14.403Z,76.29
2017-08-12T07:10:03.152Z,75.86
2017-08-12T07:12:34.331Z,75.66
2017-08-12T07:15:06.134Z,75.59
2017-08-12T07:17:37.229Z,74.92
2017-08-12T07:20:08.443Z,75.03
2017-08-12T07:22:41.285Z,74.77
2017-08-12T07:25:12.515Z,74.80
2017-08-12T07:27:46.029Z,74.64
2017-08-12T07:30:17.558Z,75.28
2017-08-12T07:32:48.708Z,75.62
2017-08-12T07:35:20.092Z,74.66
2017-08-12T07:37:51.545Z,74.51
2017-08-12T07:40:22.796Z,73.63
2017-08-12T07:42:53.876Z,73.62
2017-08-12T07:45:25.500Z,72.68
2017-08-12T07:47:56.718Z,72.48
2017-08-12T07:50:28.043Z,72.31
2017-08-12T07:52:59.097Z,71.49
2017-08-12T07:55:30.158Z,71.28
2017-08-12T07:58:03.048Z,70.91
2017-08-12T08:00:34.417Z,70.25
2017-08-12T08:03:05.747Z,69.99
2017-08-12T08:05:37.487Z,68.64
2017-08-12T08:08:08.577Z,68.96
2017-08-12T08:10:42.322Z,68.00
2017-08-12T08:13:13.397Z,67.35
2017-08-12T08:15:46.034Z,66.82
2017-08-12T08:18:19.648Z,65.84
2017-08-12T08:20:50.825Z,65.29
2017-08-12T08:23:23.160Z,65.43
2017-08-12T08:25:54.340Z,63.97
2017-08-12T08:28:25.370Z,64.77
2017-08-12T08:30:56.760Z,65.04
2017-08-12T08:33:27.780Z,63.65
2017-08-12T08:35:59.111Z,63.71
2017-08-12T08:38:30.138Z,63.55
2017-08-12T08:41:01.605Z,62.96
2017-08-12T08:43:32.936Z,59.41
2017-08-12T08:46:05.147Z,59.00
2017-08-12T08:48:36.482Z,57.89
2017-08-12T08:51:07.519Z,55.03
2017-08-12T08:53:38.598Z,55.10
2017-08-12T08:56:10.112Z,54.47
2017-08-12T08:58:42.572Z,53.36
2017-08-12T09:01:13.730Z,54.25
2017-08-12T09:03:46.545Z,56.11
2017-08-12T09:06:17.886Z,55.47
2017-08-12T09:08:49.098Z,54.24
2017-08-12T09:11:20.235Z,53.74
2017-08-12T09:13:51.286Z,54.92
2017-08-12T09:16:23.047Z,54.95
2017-08-12T09:18:54.094Z,56.07
2017-08-12T09:21:25.123Z,54.90
2017-08-12T09:23:56.164Z,56.77
2017-08-12T09:26:27.980Z,57.54
2017-08-12T09:28:59.458Z,57.36
2017-08-12T09:31:30.492Z,59.03
2017-08-12T09:34:02.557Z,58.94
2017-08-12T09:36:34.225Z,58.33
2017-08-12T09:39:05.994Z,57.56
2017-08-12T09:41:37.087Z,58.56
2017-08-12T09:44:08.485Z,57.91
2017-08-12T09:46:39.880Z,59.28
2017-08-12T09:49:11.219Z,60.31
2017-08-12T09:51:43.675Z,57.50
2017-08-12T09:54:14.777Z,57.69
2017-08-12T09:56:47.074Z,59.22
2017-08-12T09:59:18.132Z,59.01
2017-08-12T10:01:49.641Z,59.29
2017-08-12T10:04:20.713Z,58.89
2017-08-12T10:06:52.078Z,60.48
2017-08-12T10:09:23.788Z,60.09
2017-08-12T10:11:54.826Z,59.37
2017-08-12T10:14:25.873Z,60.12
2017-08-12T10:16:57.211Z,60.20
2017-08-12T10:19:28.250Z,60.27
2017-08-12T10:21:59.418Z,60.37
2017-08-12T10:24:30.757Z,59.13
2017-08-12T10:27:02.096Z,59.42
2017-08-12T10:29:33.131Z,58.45
2017-08-12T10:32:06.901Z,57.81
2017-08-12T10:34:37.968Z,57.12
2017-08-12T10:37:09.314Z,57.57
2017-08-12T10:39:41.180Z,58.06
2017-08-12T10:42:12.656Z,58.68
2017-08-12T10:44:46.587Z,59.24
2017-08-12T10:47:18.149Z,58.14
2017-08-12T10:49:49.235Z,59.01
2017-08-12T10:52:20.296Z,58.71
2017-08-12T10:54:51.659Z,59.06
2017-08-12T10:57:22.686Z,59.14
2017-08-12T10:59:54.106Z,59.41
2017-08-12T11:02:25.233Z,57.00
2017-08-12T11:04:56.497Z,55.78
2017-08-12T11:07:28.156Z,55.60
2017-08-12T11:09:59.210Z,57.43
2017-08-12T11:12:30.268Z,56.11
2017-08-12T11:15:02.072Z,57.24
2017-08-12T11:17:33.138Z,56.22
2017-08-12T11:20:05.528Z,56.75
2017-08-12T11:22:36.830Z,55.70
2017-08-12T11:25:11.702Z,56.93
2017-08-12T11:27:43.642Z,57.38
2017-08-12T11:30:15.395Z,58.82
2017-08-12T11:32:47.268Z,59.82
2017-08-12T11:35:18.304Z,61.97
2017-08-12T11:37:49.679Z,62.42
2017-08-12T11:40:21.008Z,62.30
2017-08-12T11:42:52.061Z,62.06
2017-08-12T11:45:23.122Z,63.07
2017-08-12T11:47:54.568Z,62.69
2017-08-12T11:50:25.733Z,63.14
2017-08-12T11:52:56.784Z,61.96
2017-08-12T11:55:28.116Z,62.86
2017-08-12T11:57:59.243Z,62.34
2017-08-12T12:00:30.435Z,61.83
2017-08-12T12:03:01.975Z,60.81
2017-08-12T12:05:33.017Z,60.27
2017-08-12T12:08:05.352Z,61.12
2017-08-12T12:10:36.419Z,61.07
2017-08-12T12:13:07.504Z,60.76
2017-08-12T12:15:38.828Z,60.97
2017-08-12T12:18:09.960Z,60.94
2017-08-12T12:20:41.075Z,61.29
2017-08-12T12:23:12.495Z,62.83
2017-08-12T12:25:45.101Z,62.98
2017-08-12T12:28:16.450Z,63.77
2017-08-12T12:30:48.242Z,61.81
2017-08-12T12:33:19.329Z,61.72
2017-08-12T12:35:50.683Z,62.81
2017-08-12T12:38:22.053Z,63.97
2017-08-12T12:40:53.145Z,64.12
2017-08-12T12:43:24.498Z,63.74
2017-08-12T12:45:55.647Z,63.85
2017-08-12T12:48:27.022Z,65.51
2017-08-12T12:50:58.244Z,66.05
2017-08-12T12:53:29.823Z,64.67
2017-08-12T12:56:02.118Z,65.56
2017-08-12T12:58:33.614Z,64.63
2017-08-12T13:01:05.259Z,65.20
2017-08-12T13:03:36.670Z,65.57
2017-08-12T13:06:08.529Z,65.44
2017-08-12T13:08:40.656Z,65.53
2017-08-12T13:11:11.742Z,67.02
2017-08-12T13:13:44.546Z,68.43
2017-08-12T13:16:16.419Z,68.34
2017-08-12T13:18:47.974Z,67.71
2017-08-12T13:21:19.256Z,67.50
2017-08-12T13:23:50.446Z,67.30
2017-08-12T13:26:21.494Z,67.63
2017-08-12T13:28:52.856Z,67.74
2017-08-12T13:31:23.923Z,67.37
2017-08-12T13:33:55.001Z,67.38
2017-08-12T13:36:27.466Z,66.64
2017-08-12T13:41:24.023Z,65.24
2017-08-12T13:43:55.567Z,64.54
2017-08-12T13:46:28.392Z,64.29
2017-08-12T13:49:00.006Z,63.46
2017-08-12T13:51:32.500Z,62.96
2017-08-12T13:54:04.530Z,62.10
2017-08-12T13:56:36.277Z,62.13
2017-08-12T13:59:07.753Z,61.55
2017-08-12T14:01:39.049Z,60.80
2017-08-12T14:04:10.676Z,60.41
2017-08-12T14:06:45.495Z,61.82
2017-08-12T14:09:16.955Z,62.07
2017-08-12T14:11:49.352Z,62.17
2017-08-12T14:14:21.119Z,62.38
2017-08-12T14:16:52.602Z,62.08
2017-08-12T14:19:23.696Z,61.94
2017-08-12T14:21:55.335Z,62.69
2017-08-12T14:24:26.684Z,63.03
2017-08-12T14:27:00.409Z,63.27
2017-08-12T14:29:35.082Z,62.92
2017-08-12T14:32:06.916Z,63.21
2017-08-12T14:34:38.481Z,63.13
2017-08-12T14:37:09.805Z,63.78
2017-08-12T14:39:41.917Z,64.37
2017-08-12T14:42:13.576Z,64.45
2017-08-12T14:44:46.246Z,62.11
2017-08-12T14:47:17.765Z,62.11
2017-08-12T14:49:49.144Z,62.21
2017-08-12T14:52:23.559Z,63.66
2017-08-12T14:54:54.697Z,63.41
2017-08-12T14:57:25.699Z,63.53
2017-08-12T14:59:57.045Z,63.25
2017-08-12T15:02:28.293Z,63.71
2017-08-12T15:04:59.764Z,63.35
2017-08-12T15:07:30.900Z,63.54
2017-08-12T15:10:03.145Z,63.74
2017-08-12T15:12:35.136Z,64.16
2017-08-12T15:15:06.238Z,65.12
2017-08-12T15:17:37.319Z,65.24
2017-08-12T15:20:08.634Z,65.23
2017-08-12T15:22:39.705Z,65.16
2017-08-12T15:25:10.852Z,65.62
2017-08-12T15:27:42.323Z,65.93
2017-08-12T15:30:13.552Z,65.66
2017-08-12T15:32:46.957Z,65.16
2017-08-12T15:35:18.496Z,64.61
2017-08-12T15:37:50.293Z,64.27
2017-08-12T15:40:21.652Z,65.11
2017-08-12T15:42:53.289Z,65.60
2017-08-12T15:45:24.369Z,65.67
2017-08-12T15:47:55.780Z,65.03
2017-08-12T15:50:26.934Z,65.46
2017-08-12T15:52:58.034Z,65.72
2017-08-12T15:55:29.368Z,66.44
2017-08-12T15:58:00.500Z,66.27
2017-08-12T16:00:31.593Z,65.77
2017-08-12T16:03:03.487Z,66.44
2017-08-12T16:05:34.549Z,66.96
2017-08-12T16:08:06.710Z,66.83
2017-08-12T16:10:37.780Z,66.63
2017-08-12T16:13:09.136Z,67.06
2017-08-12T16:15:40.538Z,67.50
2017-08-12T16:18:11.668Z,67.64
2017-08-12T16:20:43.166Z,67.13
2017-08-12T16:23:14.559Z,67.50
2017-08-12T16:25:47.334Z,67.67
2017-08-12T16:28:18.447Z,67.78
2017-08-12T16:30:50.817Z,67.69
2017-08-12T16:33:21.997Z,68.03
2017-08-12T16:35:53.112Z,68.04
2017-08-12T16:38:24.587Z,67.70
2017-08-12T16:40:55.705Z,68.08
2017-08-12T16:43:27.149Z,68.71
2017-08-12T16:45:58.529Z,68.69
2017-08-12T16:48:29.922Z,69.04
2017-08-12T16:51:01.516Z,68.57
2017-08-12T16:53:32.879Z,68.51
2017-08-12T16:56:06.087Z,68.92
2017-08-12T16:58:37.431Z,69.22
2017-08-12T17:01:08.509Z,68.62
2017-08-12T17:03:39.557Z,69.41
2017-08-12T17:06:10.899Z,69.44
2017-08-12T17:08:42.069Z,70.01
2017-08-12T17:11:13.713Z,70.17
2017-08-12T17:13:47.086Z,69.65
2017-08-12T17:16:18.325Z,70.47
2017-08-12T17:18:52.063Z,71.14
2017-08-12T17:21:23.142Z,73.01
2017-08-12T17:23:54.477Z,72.80
2017-08-12T17:26:25.555Z,72.52
2017-08-12T17:28:56.756Z,73.07
2017-08-12T17:31:28.135Z,72.84
2017-08-12T17:33:59.311Z,73.50
2017-08-12T17:36:30.467Z,74.40
2017-08-12T17:39:01.912Z,74.62
2017-08-12T17:41:34.167Z,74.73
2017-08-12T17:44:06.300Z,74.39
2017-08-12T17:46:37.667Z,75.09
2017-08-12T17:49:09.744Z,76.00
2017-08-12T17:51:41.114Z,76.01
2017-08-12T17:54:12.378Z,75.87
2017-08-12T17:56:46.700Z,75.93
2017-08-12T17:59:18.145Z,75.47
2017-08-12T18:01:49.323Z,75.71
2017-08-12T18:04:20.355Z,75.72
2017-08-12T18:06:51.399Z,75.97
2017-08-12T18:09:22.568Z,76.36
2017-08-12T18:11:54.090Z,76.75
2017-08-12T18:14:25.919Z,77.03
2017-08-12T18:16:57.138Z,77.26
2017-08-12T18:19:28.607Z,77.63
2017-08-12T18:21:59.921Z,76.43
2017-08-12T18:24:31.021Z,76.50
2017-08-12T18:27:02.595Z,76.95
2017-08-12T18:29:33.993Z,77.14
2017-08-12T18:32:07.122Z,77.01
2017-08-12T18:34:38.202Z,76.84
2017-08-12T18:37:09.284Z,77.49
2017-08-12T18:39:40.906Z,77.50
2017-08-12T18:42:12.372Z,77.11
2017-08-12T18:44:46.922Z,77.40
2017-08-12T18:47:18.370Z,78.32
2017-08-12T18:49:49.935Z,76.50
2017-08-12T18:52:22.072Z,76.82
2017-08-12T18:54:53.695Z,76.47
2017-08-12T18:57:25.539Z,76.34
2017-08-12T18:59:57.051Z,76.98
2017-08-12T19:02:28.110Z,76.12
2017-08-12T19:04:59.189Z,75.84
2017-08-12T19:07:30.570Z,76.22
2017-08-12T19:10:03.705Z,76.04
2017-08-12T19:12:35.063Z,76.25
2017-08-12T19:15:06.604Z,76.06
2017-08-12T19:17:38.312Z,76.41
2017-08-12T19:20:09.780Z,76.47
2017-08-12T19:22:41.174Z,76.92
2017-08-12T19:25:12.372Z,76.71
2017-08-12T19:27:44.046Z,76.44
2017-08-12T19:30:15.460Z,76.39
2017-08-12T19:32:49.540Z,76.31
2017-08-12T19:35:20.728Z,76.42
2017-08-12T19:37:51.858Z,76.83
2017-08-12T19:40:23.409Z,76.81
2017-08-12T19:42:54.861Z,76.95
2017-08-12T19:45:26.312Z,76.48
2017-08-12T19:47:57.670Z,76.73
2017-08-12T19:50:34.671Z,77.27
2017-08-12T19:53:06.078Z,77.22
2017-08-12T19:58:17.642Z,77.45
2017-08-12T20:00:50.795Z,77.82
2017-08-12T20:03:22.127Z,78.26
2017-08-12T20:05:53.432Z,78.59
2017-08-12T20:08:25.747Z,78.84
2017-08-12T20:10:57.203Z,78.58
2017-08-12T20:13:28.413Z,78.52
2017-08-12T20:17:29.444Z,78.37
2017-08-12T20:20:00.595Z,78.22
2017-08-12T20:22:32.175Z,78.15
2017-08-12T20:25:05.563Z,78.24
2017-08-12T20:27:37.515Z,77.94
2017-08-12T20:30:08.936Z,77.99
2017-08-12T20:32:40.040Z,78.04
2017-08-12T20:35:11.491Z,77.90
2017-08-12T20:37:44.283Z,77.89
2017-08-12T20:40:15.753Z,78.05
2017-08-12T20:42:49.727Z,78.09
2017-08-12T20:45:20.931Z,77.85
2017-08-12T20:47:52.629Z,77.40
2017-08-12T20:50:23.777Z,77.77
2017-08-12T20:52:55.352Z,78.07
2017-08-12T20:55:28.642Z,77.91
2017-08-12T20:57:59.714Z,77.74
2017-08-12T21:00:31.485Z,77.74
2017-08-12T21:03:03.272Z,77.66
2017-08-12T21:05:36.865Z,77.07
2017-08-12T21:08:08.370Z,77.39
2017-08-12T21:10:39.525Z,77.27
2017-08-12T21:13:11.625Z,77.11
2017-08-12T21:15:42.696Z,77.11
2017-08-12T21:18:14.034Z,76.96
2017-08-12T21:20:46.992Z,77.20
2017-08-12T21:23:22.791Z,77.16
2017-08-12T21:25:54.119Z,77.32
2017-08-12T21:28:25.175Z,77.58
2017-08-12T21:30:56.591Z,77.48
2017-08-12T21:33:27.630Z,77.62
2017-08-12T21:35:59.256Z,77.44
2017-08-12T21:38:30.300Z,77.29
2017-08-12T21:41:01.601Z,77.09
2017-08-12T21:43:33.175Z,77.37
2017-08-12T21:46:06.271Z,77.39
2017-08-12T21:48:37.744Z,77.11
2017-08-12T21:51:10.116Z,77.08
2017-08-12T21:56:21.788Z,77.51
2017-08-12T21:58:53.274Z,78.04
2017-08-12T22:01:24.690Z,78.38
2017-08-12T22:03:56.277Z,78.59
2017-08-12T22:06:27.401Z,78.80
2017-08-12T22:08:58.506Z,79.09
2017-08-12T22:11:30.155Z,79.16
2017-08-12T22:14:02.811Z,79.82
2017-08-12T22:16:33.861Z,79.70
2017-08-12T22:19:05.768Z,80.07
2017-08-12T22:21:37.028Z,80.32
2017-08-12T22:24:08.092Z,80.71
2017-08-12T22:26:39.598Z,80.56
2017-08-12T22:29:10.984Z,80.54
2017-08-12T22:31:42.534Z,80.63
2017-08-12T22:34:13.873Z,80.85
2017-08-12T22:36:46.258Z,80.19
2017-08-12T22:39:17.421Z,80.17
2017-08-12T22:41:49.209Z,79.89
2017-08-12T22:44:20.743Z,79.87
2017-08-12T22:46:52.008Z,79.86
2017-08-12T22:49:23.653Z,79.59
2017-08-12T22:51:55.316Z,79.96
2017-08-12T22:54:26.661Z,80.17
2017-08-12T22:56:57.986Z,80.36
2017-08-12T22:59:29.524Z,80.64
2017-08-12T23:02:00.818Z,80.83
2017-08-12T23:04:31.991Z,80.42
2017-08-12T23:07:05.503Z,81.21
2017-08-12T23:09:36.658Z,81.48
2017-08-12T23:12:08.012Z,81.19
2017-08-12T23:14:39.150Z,81.22
2017-08-12T23:17:10.136Z,81.16
2017-08-12T23:19:41.791Z,81.17
2017-08-12T23:22:12.872Z,81.43
2017-08-12T23:24:43.938Z,81.24
2017-08-12T23:27:15.412Z,81.29
2017-08-12T23:29:48.102Z,80.79
2017-08-12T23:32:19.426Z,81.13
2017-08-12T23:34:50.894Z,80.77
2017-08-12T23:37:21.943Z,80.50
2017-08-12T23:39:53.487Z,80.43
2017-08-12T23:42:25.309Z,80.23
2017-08-12T23:44:56.394Z,80.17
2017-08-12T23:47:27.774Z,79.97
2017-08-12T23:49:59.156Z,79.70
2017-08-12T23:52:30.527Z,79.81
2017-08-12T23:55:01.882Z,79.71
2017-08-12T23:57:32.964Z,80.13
